Weather at Hurdal Airstrip [CLOSED]

Public forecast

Using degrees Celsius for public forecast. Weather courtesy of forecast.io.

Closest aviation weather report (METAR) to Hurdal Airstrip

Closest report is Oslo Airport, Gardermoen, 10.1 nm (18.7 km) S.

2024/05/27 22:20 (retrieved 25 minutes ago)

ENGM 272220Z 18009KT 9999 FEW012 BKN015 14/13 Q1015

Closest aviation forecast (TAF) to Hurdal Airstrip

Closest forecast is Oslo Airport, Gardermoen, 10.1 nm (18.7 km) S.

2024/05/27 19:00 Ammendment (retrieved 4 hours ago)

TAF AMD ENGM 271917Z 2719/2818 15008KT 9999 BKN012 TEMPO 2719/2807 SCT012 BECMG 2807/2809 SCT030 TEMPO 2812/2816 SCT030TCU TEMPO 2816/2818 04015G25KT 4000 TSRA BKN030CB